createdAt,value
2018-04-07T00:00:16.329Z,96728
2018-04-07T00:02:44.311Z,96735
2018-04-07T00:05:12.310Z,96725
2018-04-07T00:07:40.267Z,96734
2018-04-07T00:10:08.227Z,96726
2018-04-07T00:12:36.223Z,96726
2018-04-07T00:15:04.207Z,96723
2018-04-07T00:17:32.216Z,96732
2018-04-07T00:20:00.191Z,96727
2018-04-07T00:22:28.194Z,96727
2018-04-07T00:24:56.204Z,96728
2018-04-07T00:27:24.191Z,96718
2018-04-07T00:29:52.162Z,96720
2018-04-07T00:32:20.146Z,96726
2018-04-07T00:34:48.112Z,96723
2018-04-07T00:37:16.100Z,96729
2018-04-07T00:39:44.107Z,96727
2018-04-07T00:42:12.104Z,96718
2018-04-07T00:44:40.071Z,96718
2018-04-07T00:47:08.036Z,96720
2018-04-07T00:49:36.027Z,96714
2018-04-07T00:52:04.014Z,96725
2018-04-07T00:54:32.004Z,96716
2018-04-07T00:57:00.007Z,96721
2018-04-07T00:59:28.015Z,96718
2018-04-07T01:01:55.979Z,96716
2018-04-07T01:04:23.955Z,96709
2018-04-07T01:06:51.961Z,96720
2018-04-07T01:09:19.955Z,96720
2018-04-07T01:11:47.971Z,96718
2018-04-07T01:14:15.976Z,96715
2018-04-07T01:16:43.935Z,96716
2018-04-07T01:19:11.924Z,96713
2018-04-07T01:21:39.888Z,96712
2018-04-07T01:24:07.860Z,96716
2018-04-07T01:26:35.847Z,96720
2018-04-07T01:29:03.816Z,96707
2018-04-07T01:31:31.804Z,96712
2018-04-07T01:33:59.769Z,96710
2018-04-07T01:36:27.864Z,96710
2018-04-07T01:38:55.836Z,96706
2018-04-07T01:41:23.815Z,96708
2018-04-07T01:43:51.803Z,96703
2018-04-07T01:46:19.764Z,96703
2018-04-07T01:48:47.777Z,96701
2018-04-07T01:51:15.770Z,96711
2018-04-07T01:53:43.758Z,96709
2018-04-07T01:56:11.731Z,96710
2018-04-07T01:58:39.749Z,96708
2018-04-07T02:01:07.711Z,96704
2018-04-07T02:03:35.676Z,96701
2018-04-07T02:06:03.700Z,96704
2018-04-07T02:08:31.668Z,96702
2018-04-07T02:10:59.627Z,96698
2018-04-07T02:13:27.630Z,96701
2018-04-07T02:15:55.724Z,96707
2018-04-07T02:18:23.694Z,96707
2018-04-07T02:20:51.701Z,96707
2018-04-07T02:23:19.675Z,96701
2018-04-07T02:25:47.680Z,96711
2018-04-07T02:28:15.683Z,96699
2018-04-07T02:30:43.649Z,96708
2018-04-07T02:33:11.631Z,96711
2018-04-07T02:35:39.634Z,96700
2018-04-07T02:38:07.600Z,96708
2018-04-07T02:40:35.572Z,96710
2018-04-07T02:43:03.560Z,96698
2018-04-07T02:45:31.546Z,96711
2018-04-07T02:47:59.538Z,96710
2018-04-07T02:50:27.520Z,96709
2018-04-07T02:52:55.483Z,96706
2018-04-07T02:55:23.466Z,96712
2018-04-07T02:57:51.469Z,96718
2018-04-07T03:00:19.437Z,96726
2018-04-07T03:02:47.417Z,96720
2018-04-07T03:05:15.408Z,96715
2018-04-07T03:07:43.372Z,96717
2018-04-07T03:10:11.332Z,96707
2018-04-07T03:12:39.327Z,96702
2018-04-07T03:15:07.287Z,96705
2018-04-07T03:17:35.247Z,96701
2018-04-07T03:20:03.262Z,96715
2018-04-07T03:22:31.275Z,96710
2018-04-07T03:24:59.239Z,96701
2018-04-07T03:27:27.211Z,96703
2018-04-07T03:29:57.979Z,96713
2018-04-07T03:32:25.941Z,96705
2018-04-07T03:34:53.926Z,96706
2018-04-07T03:37:21.895Z,96699
2018-04-07T03:39:49.862Z,96695
2018-04-07T03:42:17.863Z,96695
2018-04-07T03:44:45.849Z,96701
2018-04-07T03:47:13.854Z,96704
2018-04-07T03:49:41.815Z,96707
2018-04-07T03:52:09.779Z,96707
2018-04-07T03:54:37.768Z,96705
2018-04-07T03:57:05.800Z,96702
2018-04-07T03:59:33.762Z,96706
2018-04-07T04:02:01.728Z,96700
2018-04-07T04:04:29.751Z,96701
2018-04-07T04:06:57.747Z,96698
2018-04-07T04:09:25.716Z,96706
2018-04-07T04:11:53.686Z,96693
2018-04-07T04:14:21.703Z,96689
2018-04-07T04:16:49.703Z,96688
2018-04-07T04:19:17.667Z,96686
2018-04-07T04:21:45.663Z,96687
2018-04-07T04:24:13.632Z,96697
2018-04-07T04:26:41.592Z,96694
2018-04-07T04:29:09.606Z,96693
2018-04-07T04:31:37.570Z,96701
2018-04-07T04:34:05.535Z,96686
2018-04-07T04:36:33.527Z,96689
2018-04-07T04:39:01.514Z,96695
2018-04-07T04:41:29.521Z,96691
2018-04-07T04:43:57.487Z,96691
2018-04-07T04:46:25.447Z,96685
2018-04-07T04:48:53.450Z,96700
2018-04-07T04:51:21.402Z,96690
2018-04-07T04:53:49.364Z,96691
2018-04-07T04:56:17.381Z,96700
2018-04-07T04:58:45.347Z,96715
2018-04-07T05:01:13.307Z,96712
2018-04-07T05:03:41.290Z,96720
2018-04-07T05:06:09.254Z,96703
2018-04-07T05:08:37.255Z,96713
2018-04-07T05:11:05.235Z,96707
2018-04-07T05:13:33.205Z,96716
2018-04-07T05:16:01.295Z,96713
2018-04-07T05:18:29.359Z,96722
2018-04-07T05:20:57.318Z,96722
2018-04-07T05:23:25.314Z,96725
2018-04-07T05:25:53.286Z,96741
2018-04-07T05:28:21.242Z,96747
2018-04-07T05:30:49.219Z,96753
2018-04-07T05:33:17.175Z,96759
2018-04-07T05:35:45.154Z,96741
2018-04-07T05:38:13.156Z,96750
2018-04-07T05:40:41.124Z,96755
2018-04-07T05:43:09.118Z,96757
2018-04-07T05:45:37.079Z,96757
2018-04-07T05:48:05.039Z,96773
2018-04-07T05:50:33.024Z,96772
2018-04-07T05:53:01.008Z,96763
2018-04-07T05:55:29.022Z,96770
2018-04-07T05:57:56.966Z,96780
2018-04-07T06:00:24.953Z,96770
2018-04-07T06:02:52.948Z,96758
2018-04-07T06:05:20.903Z,96772
2018-04-07T06:07:48.855Z,96791
2018-04-07T06:10:16.847Z,96789
2018-04-07T06:12:44.799Z,96774
2018-04-07T06:15:12.761Z,96782
2018-04-07T06:17:40.731Z,96781
2018-04-07T06:20:08.722Z,96791
2018-04-07T06:22:36.679Z,96787
2018-04-07T06:25:04.675Z,96794
2018-04-07T06:27:32.627Z,96793
2018-04-07T06:30:00.582Z,96793
2018-04-07T06:32:28.566Z,96791
2018-04-07T06:34:56.565Z,96780
2018-04-07T06:37:24.494Z,96790
2018-04-07T06:39:52.483Z,96795
2018-04-07T06:42:20.435Z,96778
2018-04-07T06:44:48.392Z,96786
2018-04-07T06:47:16.371Z,96785
2018-04-07T06:49:44.323Z,96788
2018-04-07T06:52:12.279Z,96780
2018-04-07T06:54:40.250Z,96791
2018-04-07T06:57:08.199Z,96803
2018-04-07T06:59:36.147Z,96798
2018-04-07T07:02:04.146Z,96803
2018-04-07T07:04:32.098Z,96795
2018-04-07T07:07:00.084Z,96800
2018-04-07T07:09:28.035Z,96805
2018-04-07T07:11:56.007Z,96814
2018-04-07T07:14:23.983Z,96816
2018-04-07T07:16:51.991Z,96819
2018-04-07T07:19:19.950Z,96825
2018-04-07T07:21:47.918Z,96833
2018-04-07T07:24:15.959Z,96823
2018-04-07T07:26:43.950Z,96826
2018-04-07T07:29:11.931Z,96824
2018-04-07T07:31:39.927Z,96808
2018-04-07T07:34:08.805Z,96829
2018-04-07T07:36:37.786Z,96830
2018-04-07T07:39:07.181Z,96821
2018-04-07T07:41:36.158Z,96802
2018-04-07T07:44:04.216Z,96816
2018-04-07T07:46:32.199Z,96820
2018-04-07T07:49:00.203Z,96810
2018-04-07T07:51:28.275Z,96814
2018-04-07T07:53:56.236Z,96831
2018-04-07T07:56:24.222Z,96819
2018-04-07T07:58:52.200Z,96827
2018-04-07T08:01:20.199Z,96829
2018-04-07T08:03:48.172Z,96837
2018-04-07T08:06:16.136Z,96829
2018-04-07T08:08:44.131Z,96825
2018-04-07T08:11:12.142Z,96821
2018-04-07T08:13:40.107Z,96813
2018-04-07T08:16:08.094Z,96811
2018-04-07T08:18:36.068Z,96812
2018-04-07T08:21:04.063Z,96818
2018-04-07T08:23:32.042Z,96821
2018-04-07T08:26:00.004Z,96815
2018-04-07T08:28:28.006Z,96827
2018-04-07T08:30:55.983Z,96828
2018-04-07T08:33:23.938Z,96823
2018-04-07T08:35:51.927Z,96831
2018-04-07T08:38:19.940Z,96818
2018-04-07T08:40:47.914Z,96813
2018-04-07T08:43:15.896Z,96836
2018-04-07T08:45:43.887Z,96835
2018-04-07T08:48:11.850Z,96838
2018-04-07T08:50:39.895Z,96835
2018-04-07T08:53:07.851Z,96818
2018-04-07T08:55:35.820Z,96822
2018-04-07T08:58:03.832Z,96817
2018-04-07T09:00:31.799Z,96826
2018-04-07T09:02:59.756Z,96818
2018-04-07T09:05:27.740Z,96824
2018-04-07T09:07:55.720Z,96826
2018-04-07T09:10:23.702Z,96826
2018-04-07T09:12:51.699Z,96824
2018-04-07T09:15:19.656Z,96828
2018-04-07T09:17:47.618Z,96826
2018-04-07T09:20:15.620Z,96818
2018-04-07T09:22:43.584Z,96840
2018-04-07T09:25:11.539Z,96832
2018-04-07T09:27:39.514Z,96822
2018-04-07T09:30:07.471Z,96827
2018-04-07T09:32:35.467Z,96828
2018-04-07T09:35:03.428Z,96819
2018-04-07T09:37:31.383Z,96817
2018-04-07T09:39:59.355Z,96816
2018-04-07T09:42:27.318Z,96818
2018-04-07T09:44:55.315Z,96805
2018-04-07T09:47:23.298Z,96802
2018-04-07T09:49:51.268Z,96789
2018-04-07T09:52:19.302Z,96810
2018-04-07T09:54:47.272Z,96798
2018-04-07T09:57:15.240Z,96800
2018-04-07T09:59:43.276Z,96807
2018-04-07T10:02:26.150Z,96790
2018-04-07T10:04:54.113Z,96786
2018-04-07T10:07:22.077Z,96789
2018-04-07T10:09:50.065Z,96793
2018-04-07T10:12:18.047Z,96790
2018-04-07T10:14:46.062Z,96790
2018-04-07T10:17:14.045Z,96789
2018-04-07T10:19:42.027Z,96781
2018-04-07T10:22:10.047Z,96772
2018-04-07T10:24:38.014Z,96768
2018-04-07T10:27:06.007Z,96773
2018-04-07T10:29:33.970Z,96772
2018-04-07T10:32:01.939Z,96765
2018-04-07T10:34:29.940Z,96780
2018-04-07T10:36:57.908Z,96770
2018-04-07T10:39:25.864Z,96769
2018-04-07T10:41:53.839Z,96775
2018-04-07T10:44:21.803Z,96763
2018-04-07T10:46:49.783Z,96759
2018-04-07T10:49:17.746Z,96748
2018-04-07T10:51:45.754Z,96764
2018-04-07T10:54:13.722Z,96754
2018-04-07T10:56:42.083Z,96745
2018-04-07T10:59:11.212Z,96749
2018-04-07T11:01:40.202Z,96746
2018-04-07T11:04:09.206Z,96733
2018-04-07T11:06:38.367Z,96730
2018-04-07T11:09:06.451Z,96723
2018-04-07T11:11:34.457Z,96717
2018-04-07T11:14:02.431Z,96707
2018-04-07T11:16:30.415Z,96704
2018-04-07T11:18:58.404Z,96704
2018-04-07T11:21:26.373Z,96701
2018-04-07T11:23:54.370Z,96688
2018-04-07T11:26:22.350Z,96690
2018-04-07T11:28:50.339Z,96686
2018-04-07T11:31:18.323Z,96677
2018-04-07T11:33:46.323Z,96676
2018-04-07T18:34:47.254Z,96799
2018-04-07T18:37:16.179Z,96800
2018-04-07T18:39:45.097Z,96801
2018-04-07T18:42:13.960Z,96804
2018-04-07T18:44:42.813Z,96809
2018-04-07T18:47:11.688Z,96804
2018-04-07T18:49:40.538Z,96805
